Time;durP1;ratioP1;P1;durP2;ratioP2;P2;SDS_P1;SDS_P2;PMS_P1;PMS_P2;Temp;Humidity;BMP_temperature;BMP_pressure;BME280_temperature;BME280_humidity;BME280_pressure;Samples;Min_cycle;Max_cycle;Signal;HPM_P1;HPM_P2
2024/03/12 00:00:21;;;;;;;11.50;2.60;;;;;;;-0.81;100.00;100826.01;106531;1260;74202;-56
2024/03/12 00:02:50;;;;;;;8.80;3.50;;;;;;;-0.81;100.00;100821.61;106178;1260;65657;-56
2024/03/12 00:05:20;;;;;;;6.60;2.90;;;;;;;-0.80;100.00;100818.81;106074;1260;71493;-56
2024/03/12 00:07:48;;;;;;;5.70;2.80;;;;;;;-0.80;100.00;100819.68;105978;1263;61449;-56
2024/03/12 00:10:19;;;;;;;6.30;3.30;;;;;;;-0.80;100.00;100817.58;106211;1253;60527;-56
2024/03/12 00:12:51;;;;;;;8.70;3.70;;;;;;;-0.80;100.00;100812.83;105979;1260;76117;-57
2024/03/12 00:15:22;;;;;;;9.00;3.30;;;;;;;-0.79;100.00;100812.83;106072;1269;65641;-57
2024/03/12 00:17:53;;;;;;;7.20;2.90;;;;;;;-0.79;100.00;100815.13;106598;1260;71643;-56
2024/03/12 00:20:29;;;;;;;9.60;3.00;;;;;;;-0.78;100.00;100810.73;106166;1260;60483;-56
2024/03/12 00:22:58;;;;;;;10.10;3.60;;;;;;;-0.79;100.00;100808.25;106095;1260;62053;-56
2024/03/12 00:25:28;;;;;;;6.50;2.90;;;;;;;-0.79;100.00;100807.55;107619;1256;74104;-56
2024/03/12 00:27:55;;;;;;;6.30;2.40;;;;;;;-0.80;100.00;100808.23;106074;1272;66268;-56
2024/03/12 00:30:27;;;;;;;9.90;2.70;;;;;;;-0.81;100.00;100808.58;108472;1258;72649;-56
2024/03/12 00:32:56;;;;;;;6.10;3.00;;;;;;;-0.80;100.00;100809.98;106280;1263;60550;-57
2024/03/12 00:35:29;;;;;;;8.40;2.80;;;;;;;-0.80;100.00;100806.48;106845;1259;60972;-57
2024/03/12 00:37:57;;;;;;;6.90;2.80;;;;;;;-0.80;100.00;100804.52;109035;1256;72407;-57
2024/03/12 00:40:33;;;;;;;11.80;3.30;;;;;;;-0.80;100.00;100804.70;109107;1253;65528;-56
2024/03/12 00:43:02;;;;;;;6.10;3.60;;;;;;;-0.80;100.00;100802.94;109092;1257;71466;-57
2024/03/12 00:45:36;;;;;;;6.80;3.00;;;;;;;-0.80;100.00;100798.71;107772;1257;60582;-57
2024/03/12 00:48:05;;;;;;;7.60;3.70;;;;;;;-0.80;100.00;100797.13;105959;1258;60324;-58
2024/03/12 00:50:33;;;;;;;7.30;2.50;;;;;;;-0.80;100.00;100797.84;109088;1254;72561;-56
2024/03/12 00:53:03;;;;;;;6.30;2.40;;;;;;;-0.79;100.00;100790.98;108967;1259;66836;-58
2024/03/12 00:55:31;;;;;;;9.20;3.10;;;;;;;-0.78;100.00;100789.58;109190;1254;72942;-57
2024/03/12 00:57:58;;;;;;;9.40;2.90;;;;;;;-0.77;100.00;100787.47;109013;1254;58681;-57
2024/03/12 01:00:28;;;;;;;7.10;2.30;;;;;;;-0.76;100.00;100784.65;108886;1254;59115;-57
2024/03/12 01:02:58;;;;;;;5.60;2.40;;;;;;;-0.74;100.00;100782.92;108111;1253;73960;-57
2024/03/12 01:05:30;;;;;;;6.60;1.80;;;;;;;-0.74;100.00;100780.80;109034;1255;67000;-57
2024/03/12 01:07:58;;;;;;;6.40;3.30;;;;;;;-0.74;100.00;100779.04;109048;1258;72450;-57
2024/03/12 01:10:27;;;;;;;5.30;2.70;;;;;;;-0.73;100.00;100781.70;107306;1257;59268;-56
2024/03/12 01:12:55;;;;;;;8.40;2.40;;;;;;;-0.72;100.00;100779.26;106984;1260;60269;-57
2024/03/12 01:15:26;;;;;;;8.60;2.90;;;;;;;-0.71;100.00;100771.87;107669;1259;72586;-58
2024/03/12 01:17:54;;;;;;;7.40;2.60;;;;;;;-0.70;100.00;100774.88;106061;1264;65669;-57
2024/03/12 01:20:24;;;;;;;12.30;3.40;;;;;;;-0.70;100.00;100777.01;106106;1257;71089;-56
2024/03/12 01:22:56;;;;;;;4.60;2.70;;;;;;;-0.69;100.00;100771.19;106188;1272;60438;-57
2024/03/12 01:25:24;;;;;;;9.80;3.10;;;;;;;-0.68;100.00;100768.56;106138;1259;60328;-57
2024/03/12 01:27:55;;;;;;;7.20;3.00;;;;;;;-0.68;100.00;100767.67;106183;1257;75388;-56
2024/03/12 01:30:26;;;;;;;7.40;3.40;;;;;;;-0.68;100.00;100770.15;107837;1258;67013;-57
2024/03/12 01:32:57;;;;;;;8.30;2.40;;;;;;;-0.69;100.00;100768.55;106037;1255;72644;-58
2024/03/12 01:35:24;;;;;;;9.60;3.10;;;;;;;-0.69;100.00;100763.09;106409;1259;60512;-57
2024/03/12 01:37:52;;;;;;;9.10;2.90;;;;;;;-0.69;100.00;100764.50;106950;1258;60907;-56
2024/03/12 01:40:26;;;;;;;6.60;2.90;;;;;;;-0.70;100.00;100765.89;106481;1260;72600;-57
2024/03/12 01:42:56;;;;;;;12.00;4.20;;;;;;;-0.70;100.00;100761.65;106531;1258;65818;-55
2024/03/12 01:45:25;;;;;;;7.70;3.40;;;;;;;-0.71;100.00;100763.05;106771;1259;70976;-57
2024/03/12 01:47:54;;;;;;;9.60;3.50;;;;;;;-0.73;100.00;100758.62;106098;1260;60517;-57
2024/03/12 01:50:24;;;;;;;8.90;3.40;;;;;;;-0.73;100.00;100753.33;107621;1260;59431;-57
2024/03/12 01:52:54;;;;;;;10.20;3.00;;;;;;;-0.75;100.00;100751.35;106345;1260;73852;-57
2024/03/12 01:55:21;;;;;;;8.60;3.10;;;;;;;-0.76;100.00;100750.80;106151;1258;67113;-57
2024/03/12 01:57:49;;;;;;;8.40;3.30;;;;;;;-0.77;100.00;100745.17;105701;1269;75341;-57
2024/03/12 02:00:17;;;;;;;10.00;4.20;;;;;;;-0.78;100.00;100746.40;105754;1258;60315;-58
2024/03/12 02:02:52;;;;;;;7.40;3.10;;;;;;;-0.80;100.00;100743.91;106184;1259;61451;-57
2024/03/12 02:05:22;;;;;;;11.30;3.10;;;;;;;-0.80;100.00;100747.95;105959;1257;74306;-58
2024/03/12 02:07:50;;;;;;;9.70;3.70;;;;;;;-0.81;100.00;100742.48;106238;1259;67692;-58
2024/03/12 02:10:21;;;;;;;9.40;3.80;;;;;;;-0.82;100.00;100744.75;106147;1260;72799;-58
2024/03/12 02:12:49;;;;;;;11.40;3.60;;;;;;;-0.83;100.00;100742.80;107135;1259;60588;-57
2024/03/12 02:15:23;;;;;;;8.00;3.40;;;;;;;-0.83;100.00;100742.27;105978;1264;60559;-58
2024/03/12 02:17:54;;;;;;;;;;;;;;;-0.85;100.00;100743.65;105945;1262;73852;-57
2024/03/12 02:20:21;;;;;;;10.60;5.10;;;;;;;-0.86;100.00;100744.89;106054;1257;66949;-57
2024/03/12 02:22:53;;;;;;;12.80;4.80;;;;;;;-0.85;100.00;100742.96;106050;1261;71447;-57
2024/03/12 02:25:22;;;;;;;10.40;4.20;;;;;;;-0.86;100.00;100740.66;106491;1257;60390;-58
2024/03/12 02:27:50;;;;;;;7.40;3.80;;;;;;;-0.87;100.00;100736.41;106277;1257;60479;-58
2024/03/12 02:30:18;;;;;;;9.30;3.90;;;;;;;-0.87;100.00;100731.13;106316;1260;72665;-58
2024/03/12 02:32:48;;;;;;;8.30;4.20;;;;;;;-0.86;100.00;100730.09;106108;1260;67510;-59
2024/03/12 02:35:16;;;;;;;10.00;4.70;;;;;;;-0.87;100.00;100727.44;106086;1260;72747;-57
2024/03/12 02:37:44;;;;;;;10.90;3.70;;;;;;;-0.86;100.00;100730.08;108998;1257;59239;-58
2024/03/12 02:40:12;;;;;;;8.20;3.90;;;;;;;-0.86;100.00;100729.73;108952;1255;58740;-58
2024/03/12 02:42:42;;;;;;;7.80;3.90;;;;;;;-0.86;100.00;100731.85;108284;1257;73762;-55
2024/03/12 02:45:14;;;;;;;8.90;4.80;;;;;;;-0.85;100.00;100730.80;106255;1260;65398;-58
2024/03/12 02:47:44;;;;;;;9.80;4.40;;;;;;;-0.86;100.00;100731.32;106129;1257;71436;-55
2024/03/12 02:50:13;;;;;;;6.40;3.40;;;;;;;-0.85;100.00;100728.14;106050;1260;60345;-54
2024/03/12 02:52:41;;;;;;;11.20;4.40;;;;;;;-0.84;100.00;100721.27;106018;1269;60534;-55
2024/03/12 02:55:10;;;;;;;12.40;4.30;;;;;;;-0.83;100.00;100719.72;105940;1259;72682;-55
2024/03/12 02:57:37;;;;;;;12.40;4.30;;;;;;;-0.81;100.00;100717.63;106348;1254;66013;-57
2024/03/12 03:00:11;;;;;;;11.80;4.30;;;;;;;-0.80;100.00;100717.29;106478;1257;70666;-57
2024/03/12 03:02:41;;;;;;;13.10;4.80;;;;;;;-0.80;100.00;100718.36;106088;1260;60565;-56
2024/03/12 03:05:11;;;;;;;9.00;4.60;;;;;;;-0.80;100.00;100716.06;105988;1258;60402;-56
2024/03/12 03:07:40;;;;;;;10.20;4.70;;;;;;;-0.80;100.00;100716.95;106116;1263;74197;-56
2024/03/12 03:10:09;;;;;;;12.20;4.20;;;;;;;-0.80;100.00;100715.19;106943;1254;65508;-56
2024/03/12 03:12:37;;;;;;;13.30;5.20;;;;;;;-0.78;100.00;100712.56;105855;1260;71782;-55
2024/03/12 03:15:05;;;;;;;10.50;4.20;;;;;;;-0.78;100.00;100708.52;106409;1260;61199;-55
2024/03/12 03:17:33;;;;;;;9.20;4.20;;;;;;;-0.78;100.00;100704.83;106004;1260;60563;-56
2024/03/12 03:20:00;;;;;;;15.40;5.20;;;;;;;-0.76;100.00;100702.71;106092;1256;71876;-56
2024/03/12 03:22:28;;;;;;;9.20;5.10;;;;;;;-0.74;100.00;100706.61;105935;1257;68805;-56
2024/03/12 03:24:55;;;;;;;10.10;4.40;;;;;;;-0.72;100.00;100703.80;105966;1270;71653;-55
2024/03/12 03:27:23;;;;;;;9.00;4.00;;;;;;;-0.71;100.00;100703.65;105988;1257;60553;-55
2024/03/12 03:29:51;;;;;;;11.60;4.70;;;;;;;-0.70;100.00;100701.02;105947;1258;60498;-55
2024/03/12 03:32:20;;;;;;;9.10;4.80;;;;;;;-0.70;100.00;100696.80;106126;1260;74605;-56
2024/03/12 03:34:48;;;;;;;10.40;5.00;;;;;;;-0.68;100.00;100693.46;107294;1254;66906;-56
2024/03/12 03:37:15;;;;;;;9.90;4.50;;;;;;;-0.66;100.00;100690.48;106078;1260;75024;-56
2024/03/12 03:39:42;;;;;;;9.50;4.30;;;;;;;-0.66;100.00;100688.73;106057;1261;61231;-55
2024/03/12 03:42:10;;;;;;;7.10;4.40;;;;;;;-0.65;100.00;100683.27;106073;1261;60864;-55
2024/03/12 03:44:37;;;;;;;9.10;4.60;;;;;;;-0.64;100.00;100685.40;106017;1260;74032;-56
2024/03/12 03:47:05;;;;;;;11.90;5.40;;;;;;;-0.63;100.00;100682.95;106130;1258;68164;-55
2024/03/12 03:49:33;;;;;;;10.90;6.60;;;;;;;-0.61;100.00;100687.56;106345;1255;72689;-55
2024/03/12 03:52:01;;;;;;;15.40;4.80;;;;;;;-0.62;100.00;100685.09;106138;1254;61480;-55
2024/03/12 03:54:28;;;;;;;13.70;5.30;;;;;;;-0.62;100.00;100688.78;107631;1254;60457;-56
2024/03/12 03:56:56;;;;;;;14.40;5.00;;;;;;;-0.64;100.00;100688.94;106100;1260;73803;-55
2024/03/12 03:59:24;;;;;;;16.40;5.90;;;;;;;-0.64;100.00;100684.52;106284;1259;67011;-57
2024/03/12 04:01:52;;;;;;;11.00;5.70;;;;;;;-0.64;100.00;100684.00;108201;1260;71274;-56
2024/03/12 04:04:19;;;;;;;11.10;5.00;;;;;;;-0.64;100.00;100684.00;107201;1253;60546;-56
2024/03/12 04:06:47;;;;;;;15.50;5.30;;;;;;;-0.65;100.00;100683.10;106192;1258;60588;-57
2024/03/12 04:09:20;;;;;;;10.00;5.20;;;;;;;-0.64;100.00;100679.23;109069;1253;75316;-57
2024/03/12 04:11:48;;;;;;;11.10;4.40;;;;;;;-0.62;100.00;100683.32;106618;1259;67371;-57
2024/03/12 04:14:17;;;;;;;9.70;4.20;;;;;;;-0.61;100.00;100680.15;109122;1254;70847;-57
2024/03/12 04:16:45;;;;;;;11.30;4.50;;;;;;;-0.61;100.00;100678.92;108952;1254;58386;-57
2024/03/12 04:19:13;;;;;;;12.30;4.80;;;;;;;-0.61;100.00;100677.16;108892;1253;58438;-54
2024/03/12 04:21:41;;;;;;;11.50;4.80;;;;;;;-0.61;100.00;100678.04;109066;1253;75305;-57
2024/03/12 04:24:10;;;;;;;14.10;6.40;;;;;;;-0.61;100.00;100677.67;108916;1254;66627;-57
2024/03/12 04:26:39;;;;;;;14.80;5.90;;;;;;;-0.62;100.00;100675.38;106659;1258;72726;-58
2024/03/12 04:29:07;;;;;;;12.80;5.20;;;;;;;-0.62;100.00;100675.02;106087;1266;60302;-56
2024/03/12 04:31:34;;;;;;;13.20;5.20;;;;;;;-0.63;100.00;100672.02;106041;1256;59377;-56
2024/03/12 04:34:02;;;;;;;10.60;5.40;;;;;;;-0.63;100.00;100671.50;106020;1261;73890;-56
2024/03/12 04:36:32;;;;;;;15.70;5.90;;;;;;;-0.63;100.00;100668.49;106053;1259;65527;-57
2024/03/12 04:38:59;;;;;;;16.10;5.30;;;;;;;-0.62;100.00;100670.09;106143;1256;73142;-56
2024/03/12 04:41:27;;;;;;;15.30;4.80;;;;;;;-0.62;100.00;100666.92;106017;1259;60409;-57
2024/03/12 04:43:54;;;;;;;12.80;5.70;;;;;;;-0.61;100.00;100670.11;106081;1259;60077;-56
2024/03/12 04:46:21;;;;;;;15.60;5.10;;;;;;;-0.62;100.00;100669.04;105990;1267;72994;-57
2024/03/12 04:48:49;;;;;;;14.50;4.90;;;;;;;-0.62;100.00;100666.92;105976;1260;66799;-56
2024/03/12 04:51:17;;;;;;;11.40;4.50;;;;;;;-0.61;100.00;100664.66;106204;1254;71698;-57
2024/03/12 04:53:45;;;;;;;12.10;6.40;;;;;;;-0.61;100.00;100663.08;106071;1254;60491;-57
2024/03/12 04:56:16;;;;;;;10.10;5.00;;;;;;;-0.60;100.00;100662.36;106365;1259;60113;-57
2024/03/12 04:58:44;;;;;;;13.30;4.80;;;;;;;-0.60;100.00;100665.36;107001;1257;73097;-56
2024/03/12 05:01:11;;;;;;;12.30;5.70;;;;;;;-0.58;100.00;100669.59;106049;1255;67516;-56
2024/03/12 05:03:39;;;;;;;11.00;5.60;;;;;;;-0.57;100.00;100668.20;105986;1260;72696;-57
2024/03/12 05:06:07;;;;;;;13.10;5.20;;;;;;;-0.56;100.00;100668.21;106488;1260;61251;-57
2024/03/12 05:08:34;;;;;;;12.60;5.50;;;;;;;-0.55;100.00;100668.77;107450;1257;59673;-58
2024/03/12 05:11:02;;;;;;;13.50;6.20;;;;;;;-0.54;100.00;100667.36;105925;1261;74881;-56
2024/03/12 05:13:29;;;;;;;10.50;5.10;;;;;;;-0.52;100.00;100670.91;106029;1256;65790;-56
2024/03/12 05:15:57;;;;;;;11.50;5.00;;;;;;;-0.50;100.00;100671.63;105988;1259;72726;-56
2024/03/12 05:18:24;;;;;;;13.50;6.00;;;;;;;-0.49;100.00;100673.40;106031;1254;60565;-56
2024/03/12 05:20:52;;;;;;;16.30;5.80;;;;;;;-0.47;100.00;100673.27;105978;1256;60441;-56
2024/03/12 05:23:19;;;;;;;14.70;6.20;;;;;;;-0.44;100.00;100677.89;105949;1260;73904;-55
2024/03/12 05:25:49;;;;;;;12.00;5.80;;;;;;;-0.42;100.00;100679.66;105970;1259;67221;-54
2024/03/12 05:28:19;;;;;;;12.50;6.20;;;;;;;-0.40;100.00;100677.57;105999;1257;71469;-55
2024/03/12 05:30:49;;;;;;;16.00;5.80;;;;;;;-0.37;100.00;100678.13;106072;1256;61419;-55
2024/03/12 05:33:16;;;;;;;10.60;4.20;;;;;;;-0.36;100.00;100677.79;106115;1254;60439;-56
2024/03/12 05:35:52;;;;;;;18.40;7.50;;;;;;;-0.34;100.00;100682.92;106157;1259;75609;-57
2024/03/12 05:38:32;;;;;;;14.80;6.10;;;;;;;-0.34;100.00;100680.10;106247;1253;67177;-56
2024/03/12 05:49:09;;;;;;;15.00;6.00;;;;;;;-0.25;100.00;100681.41;109065;1254;73893;-55
2024/03/12 05:51:37;;;;;;;13.10;5.80;;;;;;;-0.22;100.00;100683.56;106922;1259;65580;-55
2024/03/12 05:54:05;;;;;;;11.70;6.20;;;;;;;-0.20;100.00;100681.66;106507;1259;72510;-55
2024/03/12 05:56:32;;;;;;;13.20;6.40;;;;;;;-0.18;100.00;100679.39;106072;1257;60679;-56
2024/03/12 05:59:00;;;;;;;17.40;8.00;;;;;;;-0.15;100.00;100679.40;106112;1254;60546;-55
2024/03/12 06:01:27;;;;;;;17.70;6.00;;;;;;;-0.15;100.00;100677.28;106052;1260;73050;-56
2024/03/12 06:03:56;;;;;;;13.60;6.20;;;;;;;-0.12;100.00;100678.02;106091;1259;65638;-55
2024/03/12 06:06:23;;;;;;;17.60;6.80;;;;;;;-0.09;100.00;100676.65;106045;1259;73162;-56
2024/03/12 06:08:50;;;;;;;14.80;6.20;;;;;;;-0.07;100.00;100675.23;106177;1254;60520;-55
2024/03/12 06:11:18;;;;;;;15.50;5.90;;;;;;;-0.04;100.00;100676.17;106072;1259;60443;-55
2024/03/12 06:13:45;;;;;;;20.30;7.40;;;;;;;-0.01;100.00;100675.84;108613;1259;72687;-56
2024/03/12 06:16:12;;;;;;;11.50;5.40;;;;;;;0.03;100.00;100678.16;106111;1257;66776;-56
2024/03/12 06:18:40;;;;;;;15.00;6.90;;;;;;;0.06;100.00;100677.13;106091;1254;71208;-55
2024/03/12 06:21:07;;;;;;;11.90;5.60;;;;;;;0.09;100.00;100680.86;106147;1258;61217;-56
2024/03/12 06:23:35;;;;;;;15.60;6.80;;;;;;;0.11;100.00;100678.23;106111;1256;60817;-55
2024/03/12 06:26:04;;;;;;;9.40;5.40;;;;;;;0.13;100.00;100675.07;106060;1260;74008;-55
2024/03/12 06:28:32;;;;;;;14.80;6.10;;;;;;;0.16;100.00;100673.87;106111;1254;65623;-55
2024/03/12 06:30:59;;;;;;;11.20;5.80;;;;;;;0.19;100.00;100676.00;106022;1268;72935;-55
2024/03/12 06:33:27;;;;;;;13.60;5.60;;;;;;;0.22;100.00;100672.49;108960;1253;59213;-55
2024/03/12 06:35:54;;;;;;;12.80;5.60;;;;;;;0.26;100.00;100675.01;108842;1253;61163;-55
2024/03/12 06:38:22;;;;;;;19.10;7.40;;;;;;;0.30;100.00;100675.73;105949;1261;74377;-55
2024/03/12 06:40:49;;;;;;;14.20;5.80;;;;;;;0.33;100.00;100673.65;106023;1259;65631;-55
2024/03/12 06:43:18;;;;;;;15.50;5.70;;;;;;;0.36;100.00;100680.19;106099;1260;72775;-56
2024/03/12 06:45:46;;;;;;;16.20;6.10;;;;;;;0.40;100.00;100678.48;106020;1260;60392;-56
2024/03/12 06:48:17;;;;;;;10.90;5.40;;;;;;;0.44;100.00;100677.77;108812;1253;156801;-54
2024/03/12 06:53:05;;;;;;;15.50;6.60;;;;;;;0.51;100.00;100679.97;102658;1297;600585;-55
2024/03/12 06:55:33;;;;;;;16.20;6.60;;;;;;;0.54;100.00;100682.09;106632;1257;59596;-56
2024/03/12 06:58:07;;;;;;;19.60;6.20;;;;;;;0.59;100.00;100682.85;105872;1262;60012;-56
2024/03/12 07:00:40;;;;;;;17.40;6.30;;;;;;;0.63;100.00;100681.09;108813;1257;72427;-57
2024/03/12 07:03:08;;;;;;;20.30;6.70;;;;;;;0.67;100.00;100685.36;108800;1256;65704;-56
2024/03/12 07:05:43;;;;;;;14.00;5.20;;;;;;;0.71;100.00;100687.15;107158;1259;187145;-56
2024/03/12 07:08:11;;;;;;;19.20;7.00;;;;;;;0.75;100.00;100683.84;108977;1255;58978;-56
2024/03/12 07:10:40;;;;;;;13.40;6.70;;;;;;;0.81;100.00;100684.21;107251;1259;59378;-55
2024/03/12 07:13:08;;;;;;;18.50;6.50;;;;;;;0.85;100.00;100689.36;105980;1257;74302;-55
2024/03/12 07:15:38;;;;;;;18.60;7.20;;;;;;;0.88;100.00;100688.31;108958;1253;68218;-56
2024/03/12 07:18:07;;;;;;;15.50;6.70;;;;;;;0.92;100.00;100692.77;107693;1260;71551;-57
2024/03/12 07:20:34;;;;;;;14.50;6.00;;;;;;;0.96;100.00;100689.41;108197;1259;59359;-56
2024/03/12 07:23:02;;;;;;;20.10;8.90;;;;;;;1.01;100.00;100691.92;108385;1260;60085;-55
2024/03/12 07:25:33;;;;;;;21.80;7.80;;;;;;;1.06;100.00;100688.77;105956;1259;71807;-56
2024/03/12 07:28:06;;;;;;;21.40;7.10;;;;;;;1.10;100.00;100692.69;107000;1260;66723;-57
2024/03/12 07:30:35;;;;;;;;;;;;;;;1.15;100.00;100697.83;105947;1262;73184;-58
2024/03/12 07:33:03;;;;;;;12.50;6.70;;;;;;;1.19;100.00;100698.38;106081;1257;60181;-57
2024/03/12 07:35:33;;;;;;;16.90;6.80;;;;;;;1.22;100.00;100699.63;106091;1262;63888;-56
2024/03/12 07:38:02;;;;;;;16.80;6.70;;;;;;;1.27;100.00;100694.52;108972;1254;75167;-57
2024/03/12 07:40:32;;;;;;;14.50;6.50;;;;;;;1.32;100.00;100693.48;108923;1254;66098;-57
2024/03/12 07:42:59;;;;;;;15.10;6.00;;;;;;;1.36;100.00;100697.57;107403;1257;75380;-58
2024/03/12 07:45:27;;;;;;;19.60;7.80;;;;;;;1.39;100.00;100692.45;106189;1256;63928;-57
2024/03/12 07:47:55;;;;;;;16.60;7.50;;;;;;;1.43;100.00;100689.65;108873;1254;62523;-57
2024/03/12 07:50:28;;;;;;;24.80;7.70;;;;;;;1.48;100.00;100692.65;108713;1254;73123;-57
2024/03/12 07:52:56;;;;;;;20.20;7.40;;;;;;;1.53;100.00;100693.56;105953;1262;65785;-58
2024/03/12 07:55:25;;;;;;;14.90;7.30;;;;;;;1.58;100.00;100694.45;106018;1260;72660;-58
2024/03/12 07:57:52;;;;;;;17.10;7.90;;;;;;;1.61;100.00;100694.29;106055;1264;59971;-58
2024/03/12 08:00:20;;;;;;;15.10;7.60;;;;;;;1.66;100.00;100693.95;106148;1257;59701;-57
2024/03/12 08:02:47;;;;;;;15.30;8.10;;;;;;;1.69;100.00;100691.31;105984;1259;74174;-59
2024/03/12 08:05:14;;;;;;;18.50;7.30;;;;;;;1.73;100.00;100684.76;105948;1254;66006;-58
2024/03/12 08:07:44;;;;;;;16.30;6.80;;;;;;;1.75;100.00;100688.48;106092;1254;72426;-57
2024/03/12 08:10:12;;;;;;;21.90;8.30;;;;;;;1.78;100.00;100687.61;106372;1256;60528;-58
2024/03/12 08:12:40;;;;;;;18.50;8.00;;;;;;;1.81;100.00;100691.50;105911;1261;59532;-58
2024/03/12 08:15:13;;;;;;;14.30;7.80;;;;;;;1.84;100.00;100695.41;105939;1260;71859;-58
2024/03/12 08:17:40;;;;;;;20.20;8.60;;;;;;;1.88;100.00;100698.41;108655;1256;67524;-58
2024/03/12 08:20:13;;;;;;;17.30;8.80;;;;;;;1.93;100.00;100692.77;105904;1257;73356;-58
2024/03/12 08:22:40;;;;;;;22.00;9.00;;;;;;;1.96;100.00;100692.59;106319;1260;60612;-58
2024/03/12 08:25:10;;;;;;;19.50;9.10;;;;;;;2.00;100.00;100695.61;105885;1259;59677;-58
2024/03/12 08:27:42;;;;;;;14.40;9.20;;;;;;;2.05;100.00;100699.15;105863;1260;73446;-58
2024/03/12 08:30:10;;;;;;;17.20;8.60;;;;;;;2.08;100.00;100698.27;105887;1254;65850;-58
2024/03/12 08:32:38;;;;;;;17.50;8.90;;;;;;;2.11;100.00;100688.91;105911;1254;73656;-58
2024/03/12 08:35:09;;;;;;;27.50;9.80;;;;;;;2.15;100.00;100683.76;106165;1260;59708;-59
2024/03/12 08:37:37;;;;;;;16.20;8.20;;;;;;;2.19;100.00;100696.16;106255;1261;60212;-58
2024/03/12 08:40:07;;;;;;;14.70;8.30;;;;;;;2.23;100.00;100696.34;106144;1261;73536;-58
2024/03/12 08:42:35;;;;;;;15.70;9.40;;;;;;;2.28;100.00;100701.48;106076;1259;65804;-57
2024/03/12 08:45:17;;;;;;;14.20;8.80;;;;;;;2.30;100.00;100694.57;106095;1257;71530;-58
2024/03/12 08:47:49;;;;;;;17.90;8.50;;;;;;;2.31;100.00;100691.55;106084;1257;60138;-58
2024/03/12 08:50:17;;;;;;;14.90;8.70;;;;;;;2.34;100.00;100695.11;106123;1262;60118;-58
2024/03/12 08:52:44;;;;;;;13.60;8.40;;;;;;;2.40;100.00;100698.99;105978;1259;72290;-58
2024/03/12 08:55:12;;;;;;;15.00;8.90;;;;;;;2.43;100.00;100695.46;106125;1262;67579;-57
2024/03/12 08:57:40;;;;;;;17.40;10.30;;;;;;;2.46;100.00;100701.48;106880;1259;70968;-57
2024/03/12 09:00:12;;;;;;;14.80;9.30;;;;;;;2.49;100.00;100697.56;105990;1257;60335;-58
2024/03/12 09:02:39;;;;;;;16.70;9.80;;;;;;;2.51;100.00;100698.11;106562;1259;60511;-58
2024/03/12 09:05:07;;;;;;;15.60;8.70;;;;;;;2.53;100.00;100693.68;105994;1260;74406;-57
2024/03/12 09:07:38;;;;;;;17.40;9.60;;;;;;;2.57;100.00;100692.08;106211;1257;66973;-57
2024/03/12 09:10:11;;;;;;;17.30;9.30;;;;;;;2.61;100.00;100691.73;105963;1262;73639;-57
2024/03/12 09:12:40;;;;;;;19.70;10.10;;;;;;;2.63;100.00;100688.55;106065;1259;59704;-58
2024/03/12 09:15:09;;;;;;;16.20;9.20;;;;;;;2.63;100.00;100688.73;106674;1255;59742;-59
2024/03/12 09:17:40;;;;;;;15.40;9.10;;;;;;;2.62;100.00;100686.41;106951;1257;73131;-61
2024/03/12 09:20:12;;;;;;;12.80;8.20;;;;;;;2.62;100.00;100693.68;105975;1262;69429;-56
2024/03/12 09:22:39;;;;;;;14.60;8.60;;;;;;;2.61;100.00;100685.70;105918;1270;74477;-57
2024/03/12 09:25:08;;;;;;;18.00;10.10;;;;;;;2.60;100.00;100693.85;105973;1259;59679;-58
2024/03/12 09:27:39;;;;;;;13.60;8.30;;;;;;;2.59;100.00;100691.02;107633;1259;60157;-58
2024/03/12 09:30:07;;;;;;;14.30;9.10;;;;;;;2.56;100.00;100688.17;105951;1262;71064;-57
2024/03/12 09:32:35;;;;;;;19.30;9.90;;;;;;;2.53;100.00;100689.95;106409;1256;66802;-57
2024/03/12 09:35:02;;;;;;;18.00;8.70;;;;;;;2.51;100.00;100686.42;105918;1257;70545;-58
2024/03/12 09:37:32;;;;;;;14.00;8.80;;;;;;;2.50;100.00;100683.93;105961;1264;60546;-59
2024/03/12 09:40:00;;;;;;;16.40;9.60;;;;;;;2.49;100.00;100679.86;105964;1259;60981;-57
2024/03/12 09:42:28;;;;;;;19.50;11.30;;;;;;;2.48;100.00;100678.27;106076;1262;72936;-57
2024/03/12 09:44:56;;;;;;;19.20;10.70;;;;;;;2.46;100.00;100678.45;105917;1257;65197;-57
2024/03/12 09:47:24;;;;;;;17.70;10.10;;;;;;;2.47;100.00;100677.38;105932;1264;72890;-56
2024/03/12 09:49:51;;;;;;;14.90;10.40;;;;;;;2.49;100.00;100677.55;105937;1275;60076;-57
2024/03/12 09:52:19;;;;;;;16.00;10.20;;;;;;;2.50;100.00;100679.50;105820;1263;62656;-58
2024/03/12 09:54:48;;;;;;;13.70;9.40;;;;;;;2.51;100.00;100677.38;108873;1255;72229;-57
2024/03/12 09:57:16;;;;;;;19.60;11.10;;;;;;;2.52;100.00;100675.08;106786;1257;66085;-57
2024/03/12 09:59:43;;;;;;;16.50;11.20;;;;;;;2.53;100.00;100672.07;105963;1264;72689;-57
2024/03/12 10:02:10;;;;;;;23.70;11.40;;;;;;;2.54;100.00;100668.71;105982;1259;60658;-58
2024/03/12 10:04:39;;;;;;;25.10;11.60;;;;;;;2.56;100.00;100663.18;108934;1256;60156;-58
2024/03/12 10:07:06;;;;;;;17.40;11.60;;;;;;;2.58;100.00;100666.20;108882;1255;71856;-57
2024/03/12 10:09:34;;;;;;;19.90;11.30;;;;;;;2.58;100.00;100665.49;107134;1259;67608;-56
2024/03/12 10:12:02;;;;;;;28.50;11.70;;;;;;;2.60;100.00;100663.38;108875;1256;73016;-58
2024/03/12 10:14:33;;;;;;;21.30;11.90;;;;;;;2.62;100.00;100662.66;108815;1256;58058;-57
2024/03/12 10:17:13;;;;;;;20.90;13.00;;;;;;;2.66;100.00;100663.70;108912;1254;60545;-58
2024/03/12 10:19:43;;;;;;;23.50;13.70;;;;;;;2.70;100.00;100664.06;108889;1255;73545;-58
2024/03/12 10:22:16;;;;;;;19.40;11.20;;;;;;;2.72;100.00;100660.70;108895;1254;64865;-58
2024/03/12 10:24:46;;;;;;;16.40;9.70;;;;;;;2.72;100.00;100661.05;108972;1255;72684;-57
2024/03/12 10:27:14;;;;;;;17.70;8.70;;;;;;;2.74;100.00;100656.06;107648;1257;60455;-58
2024/03/12 10:29:42;;;;;;;18.50;9.90;;;;;;;2.76;100.00;100660.67;106004;1254;60940;-61
2024/03/12 10:32:21;;;;;;;14.90;9.30;;;;;;;2.76;100.00;100659.09;106760;1257;73112;-59
2024/03/12 10:34:48;;;;;;;15.40;9.00;;;;;;;2.77;100.00;100657.14;105944;1260;66128;-59
2024/03/12 10:37:32;;;;;;;15.40;9.30;;;;;;;2.79;100.00;100655.19;106001;1259;73358;-57
2024/03/12 10:40:13;;;;;;;18.30;9.50;;;;;;;2.81;100.00;100655.69;106767;1257;59730;-59
2024/03/12 10:43:03;;;;;;;16.30;8.80;;;;;;;2.80;100.00;100656.42;106240;1259;59733;-58
2024/03/12 10:45:30;;;;;;;12.60;7.30;;;;;;;2.76;100.00;100649.69;106038;1263;71888;-57
2024/03/12 10:47:59;;;;;;;8.30;4.40;;;;;;;2.73;100.00;100646.33;107789;1263;67717;-59
2024/03/12 10:50:26;;;;;;;7.70;5.20;;;;;;;2.70;100.00;100645.46;107063;1259;71449;-57
2024/03/12 10:52:54;;;;;;;10.00;4.50;;;;;;;2.67;100.00;100647.94;105949;1260;59801;-58
2024/03/12 10:55:22;;;;;;;15.90;7.20;;;;;;;2.66;100.00;100644.73;106594;1262;60324;-57
2024/03/12 10:57:54;;;;;;;15.40;7.90;;;;;;;2.65;100.00;100645.10;105964;1257;71796;-57
2024/03/12 11:00:25;;;;;;;14.30;10.00;;;;;;;2.62;100.00;100646.36;106261;1257;65991;-56
2024/03/12 11:02:53;;;;;;;17.90;9.10;;;;;;;2.62;100.00;100641.05;107672;1257;72522;-57
2024/03/12 11:05:22;;;;;;;21.60;10.30;;;;;;;2.61;100.00;100639.09;106745;1257;60570;-56
2024/03/12 11:07:49;;;;;;;15.20;9.10;;;;;;;2.60;100.00;100637.86;105939;1260;60400;-58
2024/03/12 11:10:17;;;;;;;21.40;10.40;;;;;;;2.59;100.00;100639.10;105934;1266;74097;-58
2024/03/12 11:12:45;;;;;;;17.10;10.00;;;;;;;2.57;100.00;100638.38;106275;1256;65674;-60
2024/03/12 11:15:13;;;;;;;17.50;10.10;;;;;;;2.56;100.00;100640.50;106057;1262;72747;-57
2024/03/12 11:17:47;;;;;;;16.60;10.00;;;;;;;2.53;100.00;100638.58;106015;1256;60399;-58
2024/03/12 11:20:17;;;;;;;13.40;9.40;;;;;;;2.53;100.00;100641.41;106523;1262;60609;-58
2024/03/12 11:22:45;;;;;;;16.60;8.10;;;;;;;2.52;100.00;100637.52;106030;1261;73874;-58
2024/03/12 11:25:17;;;;;;;18.40;9.90;;;;;;;2.51;100.00;100636.27;105931;1262;67209;-57